Time;durP1;ratioP1;P1;durP2;ratioP2;P2;SDS_P1;SDS_P2;PMS_P1;PMS_P2;Temp;Humidity;BMP_temperature;BMP_pressure;BME280_temperature;BME280_humidity;BME280_pressure;Samples;Min_cycle;Max_cycle;Signal;HPM_P1;HPM_P2
2024/01/18 00:00:39;;;;;;;0.50;0.50;;;7.70;99.90;;;;;;4942520;28;20417;-73
2024/01/18 00:03:05;;;;;;;0.77;0.70;;;7.70;99.90;;;;;;4945860;28;20034;-74
2024/01/18 00:05:30;;;;;;;0.40;0.40;;;7.60;99.90;;;;;;4951659;28;20048;-75
2024/01/18 00:07:56;;;;;;;0.50;0.50;;;7.70;99.90;;;;;;4946685;28;20083;-77
2024/01/18 00:10:26;;;;;;;1.10;0.50;;;7.70;99.90;;;;;;4946538;29;20028;-75
2024/01/18 00:12:52;;;;;;;0.30;0.30;;;7.70;99.90;;;;;;4945248;28;20028;-75
2024/01/18 00:15:18;;;;;;;0.50;0.50;;;7.70;99.90;;;;;;4947424;28;20045;-76
2024/01/18 00:17:44;;;;;;;0.50;0.50;;;7.70;99.90;;;;;;4945592;28;20457;-76
2024/01/18 00:20:10;;;;;;;0.57;0.57;;;7.70;99.90;;;;;;4943350;28;20040;-77
2024/01/18 00:22:35;;;;;;;0.38;0.38;;;7.70;99.90;;;;;;4946020;29;20055;-79
2024/01/18 00:25:01;;;;;;;0.32;0.32;;;7.70;99.90;;;;;;4948508;28;20039;-75
2024/01/18 00:27:27;;;;;;;0.55;0.55;;;7.70;99.90;;;;;;4944340;29;20046;-75
2024/01/18 00:29:52;;;;;;;0.40;0.40;;;7.70;99.90;;;;;;4949980;28;20135;-75
2024/01/18 00:32:18;;;;;;;0.52;0.52;;;7.70;99.90;;;;;;4946861;29;20066;-75
2024/01/18 00:34:43;;;;;;;0.40;0.40;;;7.60;99.90;;;;;;4943527;29;20094;-75
2024/01/18 00:37:09;;;;;;;0.40;0.40;;;7.70;99.90;;;;;;4945281;28;20035;-75
2024/01/18 00:39:40;;;;;;;0.90;0.50;;;7.60;99.90;;;;;;4938404;29;20031;-79
2024/01/18 00:42:05;;;;;;;0.45;0.45;;;7.60;99.90;;;;;;4953390;28;20063;-78
2024/01/18 00:44:31;;;;;;;0.52;0.52;;;7.70;99.90;;;;;;4945322;29;20058;-78
2024/01/18 00:46:56;;;;;;;0.60;0.60;;;7.60;99.90;;;;;;4956686;28;20032;-78
2024/01/18 00:49:22;;;;;;;0.40;0.40;;;7.60;99.90;;;;;;4949618;28;20019;-76
2024/01/18 00:51:48;;;;;;;0.70;0.60;;;7.60;99.90;;;;;;4954544;28;20031;-76
2024/01/18 00:54:14;;;;;;;0.35;0.35;;;7.60;99.90;;;;;;4947805;29;20015;-76
2024/01/18 00:56:39;;;;;;;0.40;0.40;;;7.60;99.90;;;;;;4951149;28;20114;-76
2024/01/18 00:59:06;;;;;;;1.00;1.00;;;7.50;99.90;;;;;;4953414;29;20035;-76
2024/01/18 01:01:32;;;;;;;0.77;0.50;;;7.50;99.90;;;;;;4952388;28;20111;-81
2024/01/18 01:03:57;;;;;;;0.50;0.50;;;7.50;99.90;;;;;;4953121;28;20507;-78
2024/01/18 01:06:23;;;;;;;0.40;0.40;;;7.50;99.90;;;;;;4936485;29;20060;-77
2024/01/18 01:08:49;;;;;;;0.75;0.57;;;7.50;99.90;;;;;;4955777;29;20051;-76
2024/01/18 01:11:14;;;;;;;0.40;0.40;;;7.50;99.90;;;;;;4956368;28;20047;-75
2024/01/18 01:13:40;;;;;;;0.43;0.40;;;7.50;99.90;;;;;;4952939;28;20041;-76
2024/01/18 01:16:06;;;;;;;0.40;0.40;;;7.50;99.90;;;;;;4954127;28;20035;-75
2024/01/18 01:18:32;;;;;;;0.40;0.40;;;7.50;99.90;;;;;;4953398;29;20046;-75
2024/01/18 01:20:57;;;;;;;0.50;0.50;;;7.50;99.90;;;;;;4940611;29;20039;-75
2024/01/18 01:23:23;;;;;;;0.40;0.40;;;7.50;99.90;;;;;;4952940;29;20035;-76
2024/01/18 01:25:48;;;;;;;0.30;0.30;;;7.50;99.90;;;;;;4949678;29;20035;-75
2024/01/18 01:28:14;;;;;;;0.30;0.30;;;7.60;99.90;;;;;;4952925;28;20031;-75
2024/01/18 01:30:39;;;;;;;0.43;0.43;;;7.60;99.90;;;;;;4949916;28;20035;-76
2024/01/18 01:33:05;;;;;;;1.17;0.68;;;7.60;99.90;;;;;;4947028;29;20550;-76
2024/01/18 01:35:31;;;;;;;0.68;0.63;;;7.50;99.90;;;;;;4955435;28;20031;-75
2024/01/18 01:37:56;;;;;;;0.30;0.30;;;7.60;99.90;;;;;;4957908;29;20388;-76
2024/01/18 01:40:22;;;;;;;0.40;0.40;;;7.50;99.90;;;;;;4956945;28;20169;-76
2024/01/18 01:42:48;;;;;;;0.30;0.30;;;7.50;99.90;;;;;;4958042;28;20075;-76
2024/01/18 01:45:13;;;;;;;0.45;0.45;;;7.50;99.90;;;;;;4941794;28;20083;-76
2024/01/18 01:47:39;;;;;;;0.50;0.50;;;7.50;99.90;;;;;;4956302;28;20035;-77
2024/01/18 01:50:06;;;;;;;0.50;0.50;;;7.50;99.90;;;;;;4957683;28;20066;-79
2024/01/18 01:52:33;;;;;;;0.50;0.50;;;7.50;99.90;;;;;;4958064;28;20051;-78
2024/01/18 01:54:59;;;;;;;0.43;0.43;;;7.50;99.90;;;;;;4961335;28;20464;-78
2024/01/18 01:57:26;;;;;;;0.40;0.40;;;7.50;99.90;;;;;;4955328;28;20102;-77
2024/01/18 01:59:52;;;;;;;0.30;0.30;;;7.40;99.90;;;;;;4959392;28;20055;-81
2024/01/18 02:02:22;;;;;;;0.40;0.40;;;7.50;99.90;;;;;;4947488;29;20047;-82
2024/01/18 02:04:47;;;;;;;0.47;0.47;;;7.50;99.90;;;;;;4960440;28;20032;-81
2024/01/18 02:07:13;;;;;;;0.50;0.50;;;7.50;99.90;;;;;;4957939;28;20272;-82
2024/01/18 02:09:40;;;;;;;0.50;0.50;;;7.40;99.90;;;;;;4957105;28;20829;-82
2024/01/18 02:12:08;;;;;;;0.40;0.40;;;7.50;99.90;;;;;;4957347;29;20139;-81
2024/01/18 02:14:33;;;;;;;0.40;0.40;;;7.50;99.90;;;;;;4953036;28;20507;-81
2024/01/18 02:16:59;;;;;;;0.40;0.40;;;7.50;99.90;;;;;;4953947;29;20124;-82
2024/01/18 02:19:25;;;;;;;0.40;0.40;;;7.50;99.90;;;;;;4959271;29;20038;-82
2024/01/18 02:21:51;;;;;;;0.68;0.47;;;7.50;99.90;;;;;;4956224;28;20043;-81
2024/01/18 02:24:29;;;;;;;0.35;0.35;;;7.50;99.90;;;;;;4937897;29;20066;-82
2024/01/18 02:26:54;;;;;;;0.40;0.40;;;7.50;99.90;;;;;;4938271;29;20043;-81
2024/01/18 02:29:20;;;;;;;0.40;0.40;;;7.50;99.90;;;;;;4952241;28;20040;-81
2024/01/18 02:31:45;;;;;;;0.40;0.40;;;7.40;99.90;;;;;;4951400;28;20107;-81
2024/01/18 02:34:14;;;;;;;0.50;0.50;;;7.50;99.90;;;;;;4962065;28;20112;-81
2024/01/18 02:36:40;;;;;;;0.50;0.50;;;7.50;99.90;;;;;;4956565;29;20034;-81
2024/01/18 02:39:06;;;;;;;0.43;0.43;;;7.50;99.90;;;;;;4953557;29;20032;-81
2024/01/18 02:41:32;;;;;;;0.40;0.40;;;7.50;99.90;;;;;;4959164;28;20043;-81
2024/01/18 02:43:58;;;;;;;0.30;0.30;;;7.50;99.90;;;;;;4955438;28;20076;-81
2024/01/18 02:46:24;;;;;;;0.40;0.40;;;7.50;99.90;;;;;;4948880;28;20020;-81
2024/01/18 02:48:50;;;;;;;0.30;0.30;;;7.50;99.90;;;;;;4956231;28;20039;-81
2024/01/18 02:51:15;;;;;;;0.60;0.40;;;7.40;99.90;;;;;;4954089;28;20105;-80
2024/01/18 02:53:42;;;;;;;0.57;0.57;;;7.50;99.90;;;;;;4954808;28;20049;-82
2024/01/18 02:56:08;;;;;;;0.50;0.50;;;7.50;99.90;;;;;;4950185;29;20055;-81
2024/01/18 02:58:33;;;;;;;0.50;0.50;;;7.40;99.90;;;;;;4951161;28;20071;-81
2024/01/18 03:00:59;;;;;;;0.60;0.60;;;7.50;99.90;;;;;;4957588;28;20086;-81
2024/01/18 03:03:25;;;;;;;0.43;0.43;;;7.50;99.90;;;;;;4949945;28;20053;-80
2024/01/18 03:05:50;;;;;;;0.60;0.60;;;7.50;99.90;;;;;;4939032;29;20035;-80
2024/01/18 03:08:17;;;;;;;0.50;0.50;;;7.50;99.90;;;;;;4972179;28;20039;-76
2024/01/18 03:10:42;;;;;;;0.60;0.60;;;7.50;99.90;;;;;;4955588;28;20027;-76
2024/01/18 03:13:08;;;;;;;1.00;0.65;;;7.50;99.90;;;;;;4958877;28;20144;-76
2024/01/18 03:15:34;;;;;;;0.40;0.40;;;7.40;99.90;;;;;;4963999;28;20460;-75
2024/01/18 03:17:59;;;;;;;1.52;1.15;;;7.40;99.90;;;;;;4962479;28;20066;-76
2024/01/18 03:20:25;;;;;;;1.65;0.77;;;7.40;99.90;;;;;;4948302;28;20035;-75
2024/01/18 03:22:51;;;;;;;0.55;0.50;;;7.40;99.90;;;;;;4966870;28;20392;-75
2024/01/18 03:25:17;;;;;;;0.40;0.40;;;7.40;99.90;;;;;;4958080;28;20038;-76
2024/01/18 03:27:43;;;;;;;0.50;0.50;;;7.50;99.90;;;;;;4958330;28;20031;-76
2024/01/18 03:30:09;;;;;;;1.00;0.63;;;7.40;99.90;;;;;;4951616;28;20159;-76
2024/01/18 03:32:35;;;;;;;0.50;0.50;;;7.40;99.90;;;;;;4952010;28;20043;-76
2024/01/18 03:35:01;;;;;;;0.60;0.60;;;7.40;99.90;;;;;;4946639;29;20043;-76
2024/01/18 03:37:26;;;;;;;0.75;0.50;;;7.50;99.90;;;;;;4962196;28;20078;-77
2024/01/18 03:39:52;;;;;;;0.50;0.50;;;7.50;99.90;;;;;;4956636;28;20111;-80
2024/01/18 03:42:18;;;;;;;0.40;0.40;;;7.50;99.90;;;;;;4960436;28;20055;-77
2024/01/18 03:44:43;;;;;;;0.50;0.50;;;7.50;99.90;;;;;;4954174;28;20031;-76
2024/01/18 03:47:09;;;;;;;0.55;0.55;;;7.40;99.90;;;;;;4949613;28;20089;-77
2024/01/18 03:49:35;;;;;;;0.50;0.50;;;7.40;99.90;;;;;;4957236;28;20038;-76
2024/01/18 03:52:00;;;;;;;0.43;0.43;;;7.50;99.90;;;;;;4964033;28;20039;-76
2024/01/18 03:54:27;;;;;;;0.50;0.50;;;7.50;99.90;;;;;;4934244;29;20032;-76
2024/01/18 03:56:52;;;;;;;0.50;0.50;;;7.40;99.90;;;;;;4958485;28;20043;-75
2024/01/18 03:59:20;;;;;;;0.70;0.70;;;7.40;99.90;;;;;;4957525;28;20106;-76
2024/01/18 04:01:45;;;;;;;0.60;0.60;;;7.40;99.90;;;;;;4937117;29;20590;-77
2024/01/18 04:04:11;;;;;;;0.63;0.60;;;7.40;99.90;;;;;;4957939;29;20046;-76
2024/01/18 04:06:37;;;;;;;0.65;0.50;;;7.30;99.90;;;;;;4956000;29;20030;-75
2024/01/18 04:09:02;;;;;;;0.40;0.40;;;7.40;99.90;;;;;;4948159;29;20050;-76
2024/01/18 04:11:29;;;;;;;0.40;0.40;;;7.40;99.90;;;;;;4955085;28;20106;-76
2024/01/18 04:13:55;;;;;;;0.60;0.60;;;7.40;99.90;;;;;;4952125;29;20035;-76
2024/01/18 04:16:20;;;;;;;0.73;0.73;;;7.40;99.90;;;;;;4954297;29;20027;-76
2024/01/18 04:18:46;;;;;;;0.40;0.40;;;7.40;99.90;;;;;;4954741;29;20543;-77
2024/01/18 04:21:13;;;;;;;0.52;0.52;;;7.40;99.90;;;;;;4951828;28;20035;-77
2024/01/18 04:23:39;;;;;;;1.87;0.57;;;7.40;99.90;;;;;;4960064;28;20046;-77
2024/01/18 04:26:05;;;;;;;0.80;0.80;;;7.40;99.90;;;;;;4958787;28;20098;-77
2024/01/18 04:28:31;;;;;;;0.50;0.50;;;7.40;99.90;;;;;;4954326;29;20050;-77
2024/01/18 04:30:56;;;;;;;0.55;0.55;;;7.40;99.90;;;;;;4951172;28;20043;-78
2024/01/18 04:33:23;;;;;;;0.60;0.60;;;7.30;99.90;;;;;;4962260;28;20463;-76
2024/01/18 04:35:48;;;;;;;0.35;0.35;;;7.30;99.90;;;;;;4957069;28;20261;-77
2024/01/18 04:38:14;;;;;;;0.60;0.60;;;7.30;99.90;;;;;;4964762;28;20063;-77
2024/01/18 04:40:40;;;;;;;0.45;0.45;;;7.30;99.90;;;;;;4959148;28;20023;-77
2024/01/18 04:43:05;;;;;;;1.38;0.50;;;7.20;99.90;;;;;;4940155;29;20038;-77
2024/01/18 04:45:31;;;;;;;0.63;0.63;;;7.10;99.90;;;;;;4949874;29;20574;-77
2024/01/18 04:47:57;;;;;;;0.57;0.57;;;7.10;99.90;;;;;;4960653;29;20027;-77
2024/01/18 04:50:25;;;;;;;0.60;0.60;;;7.10;99.90;;;;;;4958292;28;20039;-77
2024/01/18 04:52:54;;;;;;;0.50;0.50;;;7.10;99.90;;;;;;4940583;29;20043;-78
2024/01/18 04:55:20;;;;;;;;;;;7.10;99.90;;;;;;4959538;28;20042;-77
2024/01/18 04:57:48;;;;;;;0.57;0.57;;;7.00;99.90;;;;;;4953821;29;19910;-77
2024/01/18 05:00:14;;;;;;;0.80;0.80;;;7.00;99.90;;;;;;4961553;28;20066;-78
2024/01/18 05:02:40;;;;;;;0.57;0.57;;;7.00;99.90;;;;;;4954660;29;20034;-77
2024/01/18 05:05:10;;;;;;;1.05;0.63;;;7.00;99.90;;;;;;4958725;28;20070;-77
2024/01/18 05:07:36;;;;;;;1.02;0.60;;;6.90;99.90;;;;;;4953834;29;20030;-78
2024/01/18 05:10:05;;;;;;;0.52;0.52;;;6.90;99.90;;;;;;4956076;28;20062;-78
2024/01/18 05:12:32;;;;;;;0.65;0.60;;;6.90;99.90;;;;;;4961273;29;20047;-77
2024/01/18 05:14:58;;;;;;;0.55;0.55;;;6.90;99.90;;;;;;4953079;29;20034;-78
2024/01/18 05:17:30;;;;;;;0.60;0.60;;;6.80;99.90;;;;;;4960260;28;20031;-78
2024/01/18 05:19:55;;;;;;;1.08;0.60;;;6.80;99.90;;;;;;4951246;29;20046;-75
2024/01/18 05:22:21;;;;;;;0.73;0.73;;;6.80;99.90;;;;;;4951225;29;20043;-76
2024/01/18 05:24:47;;;;;;;0.70;0.70;;;6.70;99.90;;;;;;4959407;28;20019;-76
2024/01/18 05:27:13;;;;;;;0.70;0.70;;;6.60;99.90;;;;;;4957010;29;20477;-76
2024/01/18 05:29:38;;;;;;;1.88;0.65;;;6.60;99.90;;;;;;4956462;28;20040;-78
2024/01/18 05:32:04;;;;;;;0.63;0.63;;;6.50;99.90;;;;;;4956478;28;20071;-77
2024/01/18 05:34:30;;;;;;;2.85;0.52;;;6.50;99.90;;;;;;4953475;28;20031;-77
2024/01/18 05:36:55;;;;;;;0.70;0.70;;;6.50;99.90;;;;;;4944095;29;20031;-78
2024/01/18 05:39:21;;;;;;;0.65;0.65;;;6.40;99.90;;;;;;4953338;29;20039;-77
2024/01/18 05:41:46;;;;;;;1.60;0.82;;;6.50;99.90;;;;;;4955947;29;20472;-78
2024/01/18 05:44:12;;;;;;;0.85;0.70;;;6.50;99.90;;;;;;4933932;29;20024;-77
2024/01/18 05:46:38;;;;;;;1.60;0.90;;;6.50;99.90;;;;;;4951679;28;20028;-77
2024/01/18 05:49:03;;;;;;;2.28;0.82;;;6.50;99.90;;;;;;4957347;28;20518;-77
2024/01/18 05:51:29;;;;;;;0.60;0.60;;;6.50;99.90;;;;;;4955819;29;20406;-78
2024/01/18 05:53:55;;;;;;;1.98;0.80;;;6.50;99.90;;;;;;4956806;29;20035;-77
2024/01/18 05:56:21;;;;;;;1.23;1.00;;;6.50;99.90;;;;;;4955290;28;20032;-79
2024/01/18 05:58:46;;;;;;;0.80;0.80;;;6.50;99.90;;;;;;4955195;28;20051;-77
2024/01/18 06:01:12;;;;;;;1.40;0.88;;;6.50;99.90;;;;;;4958253;28;20794;-80
2024/01/18 06:03:38;;;;;;;0.70;0.70;;;6.50;99.90;;;;;;4951263;28;20050;-84
2024/01/18 06:06:04;;;;;;;0.70;0.70;;;6.50;99.90;;;;;;4957292;28;20031;-78
2024/01/18 06:08:30;;;;;;;0.60;0.60;;;6.50;99.90;;;;;;4952634;28;20131;-79
2024/01/18 06:10:56;;;;;;;0.77;0.77;;;6.50;99.90;;;;;;4962399;28;20055;-78
2024/01/18 06:13:22;;;;;;;0.75;0.75;;;6.40;99.90;;;;;;4965015;28;20047;-77
2024/01/18 06:15:47;;;;;;;0.68;0.68;;;6.40;99.90;;;;;;4944950;28;20026;-77
2024/01/18 06:18:14;;;;;;;0.80;0.80;;;6.30;99.90;;;;;;4955625;28;20023;-78
2024/01/18 06:20:40;;;;;;;1.02;0.70;;;6.30;99.90;;;;;;4953356;28;20091;-77
2024/01/18 06:23:06;;;;;;;0.70;0.70;;;6.30;99.90;;;;;;4953416;28;20039;-77
2024/01/18 06:25:32;;;;;;;0.80;0.80;;;6.30;99.90;;;;;;4950529;28;20031;-77
2024/01/18 06:27:58;;;;;;;1.40;0.90;;;6.30;99.90;;;;;;4954590;28;20074;-77
2024/01/18 06:30:24;;;;;;;0.90;0.90;;;6.30;99.90;;;;;;4948161;28;20039;-76
2024/01/18 06:32:50;;;;;;;2.85;1.30;;;6.20;99.90;;;;;;4955147;28;20027;-77
2024/01/18 06:35:15;;;;;;;14.10;5.78;;;6.20;99.90;;;;;;4952185;28;20130;-77
2024/01/18 06:37:42;;;;;;;12.85;4.38;;;6.20;99.90;;;;;;4938994;29;20031;-76
2024/01/18 06:40:09;;;;;;;9.38;4.10;;;6.10;99.90;;;;;;4957162;28;20042;-79
2024/01/18 06:42:34;;;;;;;18.25;8.82;;;6.10;99.90;;;;;;4957357;29;20027;-80
2024/01/18 06:45:02;;;;;;;12.32;7.85;;;6.10;99.90;;;;;;4948068;28;20059;-80
2024/01/18 06:47:28;;;;;;;6.93;3.42;;;6.10;99.90;;;;;;4957786;28;20035;-79
2024/01/18 06:49:53;;;;;;;57.25;27.67;;;6.10;99.90;;;;;;4957744;28;20101;-80
2024/01/18 06:52:19;;;;;;;7.38;4.45;;;6.10;99.90;;;;;;4963910;28;20047;-81
2024/01/18 06:54:46;;;;;;;33.88;14.77;;;6.10;99.90;;;;;;4954911;28;20034;-80
2024/01/18 06:57:11;;;;;;;35.47;17.00;;;6.00;99.90;;;;;;4954284;28;20043;-81
2024/01/18 06:59:44;;;;;;;20.48;10.55;;;6.00;99.90;;;;;;4934995;28;20065;-80
2024/01/18 07:02:19;;;;;;;18.70;11.68;;;6.10;99.90;;;;;;4943615;28;20039;-77
2024/01/18 07:04:49;;;;;;;52.05;21.30;;;6.10;99.90;;;;;;4945202;29;20178;-81
2024/01/18 07:07:14;;;;;;;73.70;34.17;;;6.10;99.90;;;;;;4958935;28;20031;-80
2024/01/18 07:09:40;;;;;;;34.60;17.40;;;6.00;99.90;;;;;;4967920;28;20027;-80
2024/01/18 07:12:06;;;;;;;23.77;11.48;;;6.00;99.90;;;;;;4965343;28;20050;-80
2024/01/18 07:14:32;;;;;;;8.48;4.65;;;6.00;99.90;;;;;;4966932;28;20094;-79
2024/01/18 07:16:57;;;;;;;11.85;6.90;;;6.00;99.90;;;;;;4961479;28;20035;-80
2024/01/18 07:19:23;;;;;;;14.77;8.38;;;6.00;99.90;;;;;;4952909;28;20093;-78
2024/01/18 07:21:54;;;;;;;11.80;6.90;;;6.00;99.90;;;;;;4958230;28;20027;-80
2024/01/18 07:24:22;;;;;;;7.35;6.10;;;6.00;99.90;;;;;;4947871;28;20035;-79
2024/01/18 07:26:48;;;;;;;8.82;6.13;;;6.00;99.90;;;;;;4963327;28;20067;-79
2024/01/18 07:29:14;;;;;;;11.15;6.43;;;6.00;99.90;;;;;;4960468;28;20648;-79
2024/01/18 07:31:40;;;;;;;7.57;6.55;;;6.00;99.90;;;;;;4963671;28;20063;-79
2024/01/18 07:34:05;;;;;;;10.85;7.82;;;6.00;99.90;;;;;;4963398;28;20154;-80
2024/01/18 07:36:32;;;;;;;14.18;8.82;;;6.10;99.90;;;;;;4964862;28;20053;-80
2024/01/18 07:38:57;;;;;;;16.58;11.05;;;6.10;99.90;;;;;;4962890;28;20031;-75
2024/01/18 07:41:26;;;;;;;15.93;11.70;;;6.10;99.90;;;;;;4956694;28;20053;-76
2024/01/18 07:43:53;;;;;;;20.30;13.45;;;6.10;99.90;;;;;;4963529;28;20030;-75
2024/01/18 07:46:19;;;;;;;29.02;17.55;;;6.10;99.90;;;;;;4952993;28;20032;-77
2024/01/18 07:48:44;;;;;;;28.60;19.00;;;6.10;99.90;;;;;;4962480;28;20058;-74
2024/01/18 07:51:10;;;;;;;36.28;21.25;;;6.10;99.90;;;;;;4961899;28;20428;-75
2024/01/18 07:53:36;;;;;;;19.77;13.00;;;6.10;99.90;;;;;;4962360;28;20030;-75
2024/01/18 07:56:01;;;;;;;13.88;9.88;;;6.20;99.90;;;;;;4961890;28;20035;-76
2024/01/18 07:58:27;;;;;;;4.20;3.67;;;6.30;99.90;;;;;;4963100;28;20650;-76
2024/01/18 08:00:56;;;;;;;3.67;3.25;;;6.40;99.90;;;;;;4962692;28;20055;-75
2024/01/18 08:03:22;;;;;;;2.35;1.73;;;6.50;99.90;;;;;;4964755;28;20019;-75
2024/01/18 08:05:47;;;;;;;1.60;1.50;;;6.60;99.90;;;;;;4963482;28;20118;-75
2024/01/18 08:08:13;;;;;;;1.50;1.40;;;6.70;99.90;;;;;;4969936;28;20042;-75
2024/01/18 08:10:39;;;;;;;2.08;1.70;;;6.70;99.90;;;;;;4968058;28;20027;-76
2024/01/18 08:13:06;;;;;;;1.77;1.65;;;6.90;99.90;;;;;;4962735;28;20030;-75
2024/01/18 08:15:32;;;;;;;7.65;4.75;;;6.90;99.90;;;;;;4945728;29;20035;-75
2024/01/18 08:17:57;;;;;;;7.05;4.85;;;7.10;99.90;;;;;;4953055;28;20043;-76
2024/01/18 08:20:23;;;;;;;12.88;9.73;;;7.10;99.90;;;;;;4964986;28;20062;-84
2024/01/18 08:22:49;;;;;;;7.10;5.43;;;7.20;99.90;;;;;;4965763;28;20023;-79
2024/01/18 08:25:15;;;;;;;3.95;3.00;;;7.30;99.90;;;;;;4961065;28;20034;-74
2024/01/18 08:27:43;;;;;;;5.30;4.60;;;7.40;99.90;;;;;;4959606;28;20027;-77
2024/01/18 08:30:18;;;;;;;3.05;2.30;;;7.40;99.90;;;;;;4960138;28;20124;-77
2024/01/18 08:32:43;;;;;;;6.60;4.68;;;7.40;99.90;;;;;;4964245;28;20102;-78
2024/01/18 08:35:09;;;;;;;11.90;7.25;;;7.50;99.90;;;;;;4961730;28;20102;-78
2024/01/18 08:37:35;;;;;;;5.88;4.47;;;7.50;99.90;;;;;;4964947;28;20035;-78
2024/01/18 08:40:02;;;;;;;3.10;2.80;;;7.60;99.90;;;;;;4946228;28;20031;-75
2024/01/18 08:42:28;;;;;;;5.35;3.30;;;7.80;99.90;;;;;;4969487;28;20062;-75
2024/01/18 08:44:53;;;;;;;4.28;3.17;;;7.80;99.90;;;;;;4965383;28;20054;-76
2024/01/18 08:47:19;;;;;;;1.73;1.50;;;7.90;99.90;;;;;;4970871;28;20022;-75
2024/01/18 08:49:45;;;;;;;8.02;5.20;;;7.90;99.90;;;;;;4959251;28;20391;-74
2024/01/18 08:52:10;;;;;;;5.63;3.17;;;8.00;99.90;;;;;;4962141;28;20042;-75
2024/01/18 08:54:36;;;;;;;1.20;1.10;;;8.10;99.90;;;;;;4958024;28;20183;-76
2024/01/18 08:57:02;;;;;;;1.45;1.35;;;8.10;99.90;;;;;;4957904;29;20037;-76
2024/01/18 08:59:28;;;;;;;0.82;0.82;;;8.10;99.90;;;;;;4957750;28;20103;-76
2024/01/18 09:01:57;;;;;;;0.60;0.60;;;8.20;99.90;;;;;;4952510;28;20042;-76
2024/01/18 09:04:23;;;;;;;1.55;0.68;;;8.30;99.90;;;;;;4956344;28;20062;-74
2024/01/18 09:06:49;;;;;;;1.83;1.67;;;8.40;99.90;;;;;;4953754;28;20028;-77
2024/01/18 09:09:16;;;;;;;0.47;0.47;;;8.60;99.90;;;;;;4945713;28;20035;-76
2024/01/18 09:11:56;;;;;;;0.70;0.68;;;8.60;99.90;;;;;;4951593;29;20031;-75
2024/01/18 09:14:55;;;;;;;0.40;0.40;;;8.50;99.90;;;;;;4954701;29;20039;-76
2024/01/18 09:17:23;;;;;;;0.50;0.50;;;8.70;99.90;;;;;;4938436;28;20039;-75
2024/01/18 09:19:49;;;;;;;0.50;0.50;;;8.80;99.90;;;;;;4951015;28;20373;-75
2024/01/18 09:22:15;;;;;;;0.40;0.40;;;8.90;99.90;;;;;;4949664;29;20046;-76
2024/01/18 09:24:44;;;;;;;0.50;0.50;;;8.90;99.90;;;;;;4950484;28;20035;-77
2024/01/18 09:27:11;;;;;;;0.40;0.40;;;8.90;99.90;;;;;;4948476;28;20040;-76
2024/01/18 09:29:37;;;;;;;0.47;0.47;;;9.00;99.90;;;;;;4945380;28;20115;-75
2024/01/18 09:32:04;;;;;;;6.18;3.22;;;8.90;99.90;;;;;;4928311;28;20434;-74
2024/01/18 09:34:29;;;;;;;3.83;3.25;;;9.00;99.90;;;;;;4935526;29;20452;-75
2024/01/18 09:37:15;;;;;;;14.07;8.88;;;9.00;99.90;;;;;;4937068;29;20228;-76
2024/01/18 09:39:47;;;;;;;6.10;2.92;;;9.10;99.90;;;;;;4941085;29;20543;-75
2024/01/18 09:42:16;;;;;;;7.57;4.22;;;9.20;99.90;;;;;;4934900;29;20063;-76
2024/01/18 09:47:53;;;;;;;2.72;2.53;;;9.20;99.90;;;;;;4938977;29;20036;-75
2024/01/18 09:50:29;;;;;;;1.95;1.77;;;9.20;99.90;;;;;;4937989;29;20039;-75
2024/01/18 09:52:58;;;;;;;1.40;1.40;;;9.20;99.90;;;;;;4947435;29;20048;-75
2024/01/18 09:56:00;;;;;;;;;;;;;;;;;;;;;
2024/01/18 09:58:57;;;;;;;2.55;2.45;;;9.30;99.90;;;;;;4935868;28;20134;-81
2024/01/18 10:05:32;;;;;;;;;;;;;;;;;;;;;
2024/01/18 10:08:45;;;;;;;1.00;1.00;;;9.60;99.90;;;;;;4943476;29;20118;-75
2024/01/18 10:12:48;;;;;;;1.10;1.10;;;9.60;99.90;;;;;;4941118;28;20035;-75
2024/01/18 10:17:50;;;;;;;2.53;2.40;;;9.70;99.90;;;;;;4899271;29;20068;-76
2024/01/18 10:20:49;;;;;;;0.98;0.98;;;9.60;99.90;;;;;;4897729;29;20077;-76
2024/01/18 10:24:17;;;;;;;0.50;0.43;;;9.60;99.90;;;;;;4904397;29;20041;-76
2024/01/18 10:27:23;;;;;;;1.55;1.45;;;9.70;99.90;;;;;;4835212;29;20048;-77
2024/01/18 10:30:36;;;;;;;;;;;;;;;;;;;;;
2024/01/18 10:33:44;;;;;;;0.80;0.80;;;9.70;99.90;;;;;;4954848;29;20028;-76
2024/01/18 10:39:56;;;;;;;1.33;0.60;;;9.90;99.90;;;;;;4859144;29;20041;-75
2024/01/18 10:42:55;;;;;;;0.95;0.85;;;10.00;99.90;;;;;;4869016;29;20068;-76
2024/01/18 10:45:50;;;;;;;0.93;0.93;;;10.00;99.90;;;;;;4859446;29;21095;-75
2024/01/18 10:48:45;;;;;;;0.50;0.50;;;10.00;99.90;;;;;;4877677;29;20118;-75
2024/01/18 10:51:09;;;;;;;0.52;0.52;;;9.90;99.90;;;;;;4861198;29;20048;-76
2024/01/18 10:53:37;;;;;;;0.60;0.60;;;10.00;99.90;;;;;;4916135;28;20043;-74
2024/01/18 10:56:03;;;;;;;2.45;1.02;;;9.90;99.90;;;;;;4951172;29;20079;-74
2024/01/18 10:58:34;;;;;;;0.60;0.60;;;10.00;99.90;;;;;;4943934;29;20031;-74
2024/01/18 11:01:01;;;;;;;0.40;0.40;;;10.10;99.90;;;;;;4955099;28;20150;-75
2024/01/18 11:03:28;;;;;;;0.50;0.50;;;10.10;99.90;;;;;;4956028;28;20031;-74
2024/01/18 11:05:54;;;;;;;0.60;0.60;;;10.10;99.90;;;;;;4953498;29;20213;-74
2024/01/18 11:08:21;;;;;;;0.50;0.50;;;10.10;99.90;;;;;;4959404;28;20031;-75
2024/01/18 11:10:47;;;;;;;1.90;0.50;;;10.10;99.90;;;;;;4960711;29;20039;-76
2024/01/18 11:13:15;;;;;;;0.80;0.80;;;10.20;99.90;;;;;;4952892;28;20036;-76
2024/01/18 11:15:43;;;;;;;0.40;0.40;;;10.20;99.90;;;;;;4954366;28;20016;-76
2024/01/18 11:18:12;;;;;;;0.40;0.40;;;10.30;99.90;;;;;;4958292;28;20011;-78
2024/01/18 11:21:00;;;;;;;0.40;0.40;;;10.30;99.90;;;;;;4962169;29;20035;-78
2024/01/18 11:23:27;;;;;;;0.40;0.40;;;10.40;99.90;;;;;;4958395;28;20034;-78
2024/01/18 11:25:53;;;;;;;0.40;0.40;;;10.40;99.90;;;;;;4966322;29;20035;-77
2024/01/18 11:28:24;;;;;;;0.50;0.40;;;10.40;99.90;;;;;;4962957;28;20076;-78
2024/01/18 11:30:49;;;;;;;0.60;0.60;;;10.40;99.90;;;;;;4960072;28;20043;-79
2024/01/18 11:33:15;;;;;;;0.82;0.40;;;10.50;99.90;;;;;;4965555;28;20039;-78
2024/01/18 11:35:44;;;;;;;0.43;0.43;;;10.40;99.90;;;;;;4964685;28;20534;-79
2024/01/18 11:38:21;;;;;;;0.30;0.30;;;10.40;99.90;;;;;;4962967;28;20054;-78
2024/01/18 11:40:51;;;;;;;0.40;0.40;;;10.40;99.90;;;;;;4955884;28;20083;-78
2024/01/18 11:43:17;;;;;;;0.60;0.60;;;10.50;99.90;;;;;;4962484;28;20079;-79
2024/01/18 11:45:48;;;;;;;0.40;0.40;;;10.50;99.90;;;;;;4966148;29;20107;-79
2024/01/18 11:48:14;;;;;;;0.50;0.50;;;10.60;99.90;;;;;;4951729;28;20031;-78
2024/01/18 11:50:40;;;;;;;0.32;0.32;;;10.50;99.90;;;;;;4961321;29;20034;-79
2024/01/18 11:53:11;;;;;;;0.38;0.38;;;10.50;99.90;;;;;;4951921;28;20420;-77
2024/01/18 11:55:48;;;;;;;0.40;0.40;;;10.50;99.90;;;;;;4959721;28;20044;-78
2024/01/18 11:58:14;;;;;;;0.40;0.40;;;10.50;99.90;;;;;;4964392;28;20041;-78
2024/01/18 12:00:41;;;;;;;0.95;0.50;;;10.40;99.90;;;;;;4963214;28;20055;-77
2024/01/18 12:03:10;;;;;;;0.40;0.40;;;10.50;99.90;;;;;;4946458;29;20063;-78
2024/01/18 12:05:36;;;;;;;0.30;0.30;;;10.50;99.90;;;;;;4961142;29;20876;-78
2024/01/18 12:08:02;;;;;;;0.30;0.30;;;10.50;99.90;;;;;;4957697;28;20031;-77
2024/01/18 12:10:29;;;;;;;0.40;0.40;;;10.70;99.90;;;;;;4966744;28;20052;-78
2024/01/18 12:12:56;;;;;;;0.33;0.33;;;10.70;99.90;;;;;;4965154;28;20035;-78
2024/01/18 12:15:22;;;;;;;0.50;0.50;;;10.70;99.90;;;;;;4961789;29;20063;-77
2024/01/18 12:17:48;;;;;;;0.40;0.40;;;10.70;99.90;;;;;;4953761;29;20039;-76
2024/01/18 12:20:15;;;;;;;0.30;0.30;;;10.70;99.90;;;;;;4952849;28;20034;-74
2024/01/18 12:22:42;;;;;;;0.40;0.40;;;10.70;99.90;;;;;;4950978;28;20086;-74
2024/01/18 12:25:08;;;;;;;0.30;0.30;;;10.80;99.90;;;;;;4947355;29;20051;-74
2024/01/18 12:27:34;;;;;;;0.90;0.50;;;10.70;99.90;;;;;;4953866;28;20031;-75
2024/01/18 12:30:01;;;;;;;0.20;0.20;;;10.70;99.90;;;;;;4947407;28;20023;-72
2024/01/18 12:32:27;;;;;;;0.40;0.40;;;10.70;99.90;;;;;;4949403;28;20043;-72
2024/01/18 12:34:57;;;;;;;0.45;0.40;;;10.70;99.90;;;;;;4947162;28;20496;-73
2024/01/18 12:37:23;;;;;;;0.60;0.60;;;10.60;99.90;;;;;;4946297;28;20058;-72
2024/01/18 12:39:51;;;;;;;0.65;0.40;;;10.60;99.90;;;;;;4951050;29;20035;-72
2024/01/18 12:42:17;;;;;;;0.40;0.40;;;10.50;99.90;;;;;;4945302;28;20467;-71
2024/01/18 12:44:42;;;;;;;0.32;0.32;;;10.50;99.90;;;;;;4953171;28;20043;-72
2024/01/18 12:47:08;;;;;;;0.40;0.40;;;10.40;99.90;;;;;;4952609;28;20031;-72
2024/01/18 12:49:34;;;;;;;0.45;0.45;;;10.40;99.90;;;;;;4937041;29;20368;-71
2024/01/18 12:52:01;;;;;;;0.65;0.63;;;10.30;99.90;;;;;;4946320;28;20142;-71
2024/01/18 12:54:30;;;;;;;0.30;0.30;;;10.30;99.90;;;;;;4956503;29;20054;-70
2024/01/18 12:56:58;;;;;;;0.88;0.50;;;10.30;99.90;;;;;;4948986;28;20099;-70
2024/01/18 12:59:31;;;;;;;0.60;0.60;;;10.20;99.90;;;;;;4949186;28;20032;-72
2024/01/18 13:01:57;;;;;;;0.52;0.50;;;10.20;99.90;;;;;;4951123;29;20062;-70
2024/01/18 13:04:31;;;;;;;0.60;0.60;;;10.00;99.90;;;;;;4954989;28;20032;-72
2024/01/18 13:06:59;;;;;;;0.40;0.40;;;8.90;99.90;;;;;;4953353;28;20047;-72
2024/01/18 13:09:27;;;;;;;0.57;0.57;;;8.10;99.90;;;;;;4955352;28;20026;-72
2024/01/18 13:11:54;;;;;;;0.70;0.70;;;7.60;99.90;;;;;;4953669;28;20345;-72
2024/01/18 13:14:19;;;;;;;0.50;0.50;;;7.20;99.90;;;;;;4952465;28;20059;-72
2024/01/18 13:16:46;;;;;;;0.60;0.60;;;6.70;99.90;;;;;;4952996;28;20040;-72